Copperton, UT (84006)

3:09 PM MDT on October 25, 2014 (GMT -0600)
White's Home | Change Station
CLOSE
Current Station
Personal Weather Station
Location: Herriman, UT
Elevation: 5240 ft
Nearby Weather Stations
Active Advisory: Wind Advisory Active Notice: Record Report

Elev 5240 ft 40.49 °N, 112.06 °W | Updated 7 seconds ago

Clear
Clear
73.6 °F
Feels Like 76 °F
N
32.7
Wind Variable Wind from South
Gusts 37.4 mph

Today
High -- | Low -- °F
--% Chance of Precip.
Yesterday
High -- | Low -- °F
Precip. -- in
7:50 AM 6:33 PM
Waxing Crescent, 4% visible
Pressure 29.81 in
Visibility 10.0 miles
Clouds Mostly Cloudy 25000 ft
Heat Index 76 °F
Dew Point 31 °F
Humidity 21%
Rainfall 0.00 in
Snow Depth 0 in
UV 2 out of 12
Pollen 2.00 out of 12
Ozone Good
PM2.5 Good
Flu Activity Sporadic
METAR KSLC 252053Z 16019G26KT 10SM BKN250 26/00 A2996 RMK AO2 PK WND 16029/2031 SLP095 T02560000 58026

More Conditions Fewer Conditions

Pressure 29.81 in
Visibility 10.0 miles
Clouds Mostly Cloudy 25000 ft
Heat Index 76 °F
Dew Point 31 °F
Humidity 21%
Rainfall 0.00 in
Snow Depth 0 in
UV 2 out of 12
Pollen 2.00 out of 12
Ozone Good
PM2.5 Good
Flu Activity Sporadic
METAR KSLC 252053Z 16019G26KT 10SM BKN250 26/00 A2996 RMK AO2 PK WND 16029/2031 SLP095 T02560000 58026

More Conditions Fewer Conditions

10-Day Weather Forecast

Almanac

Astronomy

Oct. 25, 2014 Rise Set
Actual Time 7:50 AM MDT 6:33 PM MDT
Civil Twilight 7:22 AM MDT 7:01 PM MDT
Nautical Twilight 6:50 AM MDT 7:33 PM MDT
Astronomical Twilight 6:18 AM MDT 8:05 PM MDT
Moon 9:33 AM MDT 7:59 PM MDT
Length of Visible Light 11h 39m
Length of Day
10h 43m
Tomorrow will be 2m 29s shorter.
Waxing Crescent, 4% of the Moon is Illuminated
Today
Waxing Crescent
Oct 30
First Quarter
Nov 6
Full
Nov 14
Last Quarter
Nov 22
New

Today's Extremes

State Highs State Lows

Community

WunderPhotos

Upload Photos

1,764,996 photos uploaded!

Nearby

Air Quality

  Air Quality AQ Index Pollutant
Yesterday Good
PM2.5
Yesterday Good
OZONE
Current Good
OZONE
Current Good
PM2.5
Saturday Good
OZONE
Sunday Good
OZONE

Snow Depth

Station Depth Elevation
Dry Fork 0 in 7160 ft
Parrish Creek 0 in 7740 ft
Cascade Mountain 0 in 7768 ft
Farmington 0 in 8000 ft
Daniels-Strawberry 0 in 8000 ft

Earthquake Activity

City Distance Mag. Time & Date
No recent earthquake activity has been reported nearby.
Minimum magnitude displayed is 2.5.

Coastal Water Temperatures

Place Temperature
No Stations Reporting

Nearby Weather Stations